createdAt,value
2023-03-02T00:00:33.791Z,102385.47
2023-03-02T00:02:39.673Z,102385.66
2023-03-02T00:04:47.356Z,102390.94
2023-03-02T00:06:51.721Z,102382.81
2023-03-02T00:08:54.092Z,102383.97
2023-03-02T00:10:58.342Z,102383.25
2023-03-02T00:13:00.507Z,102382.34
2023-03-02T00:15:05.696Z,102384.22
2023-03-02T00:17:10.816Z,102376.81
2023-03-02T00:19:12.816Z,102384.22
2023-03-02T00:21:15.372Z,102372.84
2023-03-02T00:23:17.329Z,102376.53
2023-03-02T00:25:19.781Z,102376.53
2023-03-02T00:27:24.813Z,102373.28
2023-03-02T00:29:27.379Z,102372.41
2023-03-02T00:31:29.492Z,102362.34
2023-03-02T00:33:33.142Z,102370.00
2023-03-02T00:35:40.077Z,102365.34
2023-03-02T00:37:42.206Z,102365.50
2023-03-02T00:39:44.475Z,102374.78
2023-03-02T00:41:47.675Z,102369.34
2023-03-02T00:43:51.208Z,102372.78
2023-03-02T00:45:55.715Z,102370.91
2023-03-02T00:47:58.082Z,102367.44
2023-03-02T00:50:00.152Z,102374.97
2023-03-02T00:52:02.893Z,102368.16
2023-03-02T00:54:06.525Z,102368.53
2023-03-02T00:56:11.705Z,102365.41
2023-03-02T00:58:14.125Z,102364.03
2023-03-02T01:00:16.810Z,102367.09
2023-03-02T01:02:21.617Z,102366.50
2023-03-02T01:04:31.016Z,102365.63
2023-03-02T01:06:33.473Z,102363.84
2023-03-02T01:08:38.169Z,102363.75
2023-03-02T01:10:41.274Z,102360.91
2023-03-02T01:12:43.380Z,102361.00
2023-03-02T01:14:48.278Z,102358.53
2023-03-02T01:16:50.420Z,102357.47
2023-03-02T01:18:54.623Z,102350.66
2023-03-02T01:21:03.217Z,102348.09
2023-03-02T01:23:05.455Z,102355.16
2023-03-02T01:25:08.757Z,102344.44
2023-03-02T01:27:11.041Z,102345.72
2023-03-02T01:29:15.429Z,102347.22
2023-03-02T01:31:17.688Z,102345.59
2023-03-02T01:33:20.021Z,102345.94
2023-03-02T01:35:22.153Z,102345.59
2023-03-02T01:37:27.141Z,102345.50
2023-03-02T01:39:29.286Z,102342.94
2023-03-02T01:41:31.870Z,102340.97
2023-03-02T01:43:34.047Z,102342.47
2023-03-02T01:45:45.816Z,102328.78
2023-03-02T01:47:48.033Z,102336.38
2023-03-02T01:49:57.140Z,102335.97
2023-03-02T01:51:59.409Z,102332.72
2023-03-02T01:54:08.696Z,102326.81
2023-03-02T01:56:10.961Z,102330.16
2023-03-02T01:58:15.668Z,102326.13
2023-03-02T02:00:24.884Z,102327.03
2023-03-02T02:02:29.941Z,102323.59
2023-03-02T02:04:33.828Z,102319.84
2023-03-02T02:06:40.852Z,102320.63
2023-03-02T02:08:43.210Z,102318.97
2023-03-02T02:10:45.312Z,102317.81
2023-03-02T02:12:47.332Z,102311.91
2023-03-02T02:14:55.362Z,102311.09
2023-03-02T02:17:00.198Z,102318.47
2023-03-02T02:19:04.345Z,102316.84
2023-03-02T02:21:08.171Z,102311.81
2023-03-02T02:23:16.644Z,102319.56
2023-03-02T02:25:24.928Z,102316.91
2023-03-02T02:27:30.079Z,102315.03
2023-03-02T02:29:36.031Z,102310.03
2023-03-02T02:31:46.853Z,102309.91
2023-03-02T02:33:51.939Z,102312.28
2023-03-02T02:35:58.331Z,102315.63
2023-03-02T02:38:05.549Z,102314.88
2023-03-02T02:40:15.800Z,102317.44
2023-03-02T02:42:26.444Z,102310.34
2023-03-02T02:44:28.418Z,102314.69
2023-03-02T02:46:31.951Z,102314.31
2023-03-02T02:48:34.677Z,102318.81
2023-03-02T02:50:38.113Z,102316.25
2023-03-02T02:52:41.679Z,102317.84
2023-03-02T02:54:46.797Z,102321.19
2023-03-02T02:56:50.418Z,102319.41
2023-03-02T02:58:56.199Z,102311.75
2023-03-02T03:00:59.276Z,102317.13
2023-03-02T03:03:29.354Z,102312.00
2023-03-02T03:05:31.240Z,102309.59
2023-03-02T03:07:33.321Z,102303.56
2023-03-02T03:09:35.271Z,102311.34
2023-03-02T03:11:41.953Z,102315.09
2023-03-02T03:13:44.871Z,102309.19
2023-03-02T03:15:46.658Z,102307.41
2023-03-02T03:17:55.437Z,102308.31
2023-03-02T03:20:06.292Z,102309.09
2023-03-02T03:22:11.935Z,102307.91
2023-03-02T03:24:13.924Z,102305.44
2023-03-02T03:26:16.654Z,102308.13
2023-03-02T03:28:18.699Z,102304.47
2023-03-02T03:30:20.567Z,102301.72
2023-03-02T03:32:22.962Z,102305.94
2023-03-02T03:34:25.926Z,102310.97
2023-03-02T03:36:30.942Z,102307.44
2023-03-02T03:38:32.929Z,102303.09
2023-03-02T03:40:34.932Z,102311.75
2023-03-02T03:42:37.990Z,102305.19
2023-03-02T03:44:39.846Z,102310.47
2023-03-02T03:46:41.714Z,102304.56
2023-03-02T03:48:44.363Z,102310.28
2023-03-02T03:50:46.225Z,102310.06
2023-03-02T03:52:48.148Z,102308.53
2023-03-02T03:54:52.157Z,102311.06
2023-03-02T03:56:56.246Z,102305.19
2023-03-02T03:59:06.921Z,102306.53
2023-03-02T04:01:08.828Z,102306.63
2023-03-02T04:03:10.665Z,102310.66
2023-03-02T04:05:13.550Z,102316.75
2023-03-02T04:07:15.610Z,102313.81
2023-03-02T04:09:19.953Z,102319.50
2023-03-02T04:11:22.572Z,102326.38
2023-03-02T04:13:26.493Z,102326.38
2023-03-02T04:15:28.386Z,102322.06
2023-03-02T04:17:30.224Z,102325.31
2023-03-02T04:19:32.844Z,102331.47
2023-03-02T04:21:35.157Z,102335.97
2023-03-02T04:23:36.955Z,102331.38
2023-03-02T04:25:38.816Z,102333.53
2023-03-02T04:27:41.137Z,102336.31
2023-03-02T04:29:44.850Z,102331.84
2023-03-02T04:31:48.673Z,102328.41
2023-03-02T04:33:51.475Z,102328.63
2023-03-02T04:35:54.725Z,102330.09
2023-03-02T04:37:56.629Z,102334.41
2023-03-02T04:39:58.587Z,102336.56
2023-03-02T04:42:02.731Z,102335.09
2023-03-02T04:44:07.702Z,102336.97
2023-03-02T04:46:15.153Z,102338.75
2023-03-02T04:48:17.328Z,102331.84
2023-03-02T04:50:19.408Z,102328.53
2023-03-02T04:52:22.295Z,102334.53
2023-03-02T04:54:26.292Z,102334.13
2023-03-02T04:56:28.847Z,102333.22
2023-03-02T04:58:30.716Z,102335.19
2023-03-02T05:00:34.262Z,102326.56
2023-03-02T05:02:36.222Z,102330.69
2023-03-02T05:04:38.226Z,102325.88
2023-03-02T05:06:40.203Z,102326.56
2023-03-02T05:08:42.840Z,102328.81
2023-03-02T05:10:46.734Z,102329.09
2023-03-02T05:12:53.674Z,102328.03
2023-03-02T05:14:55.483Z,102330.59
2023-03-02T05:16:57.679Z,102322.91
2023-03-02T05:19:03.194Z,102323.03
2023-03-02T05:21:05.289Z,102329.59
2023-03-02T05:23:09.363Z,102332.81
2023-03-02T05:25:11.524Z,102325.28
2023-03-02T05:27:13.425Z,102324.97
2023-03-02T05:29:15.248Z,102323.88
2023-03-02T05:31:23.336Z,102324.88
2023-03-02T05:33:25.361Z,102320.13
2023-03-02T05:35:28.459Z,102324.88
2023-03-02T05:37:30.340Z,102323.00
2023-03-02T05:39:32.418Z,102322.31
2023-03-02T05:41:34.972Z,102322.91
2023-03-02T05:43:36.830Z,102321.44
2023-03-02T05:45:39.289Z,102321.53
2023-03-02T05:47:41.251Z,102317.00
2023-03-02T05:49:43.058Z,102313.56
2023-03-02T05:51:44.974Z,102317.00
2023-03-02T05:53:46.916Z,102321.53
2023-03-02T05:55:49.217Z,102310.44
2023-03-02T05:57:51.052Z,102314.22
2023-03-02T05:59:52.991Z,102322.69
2023-03-02T06:01:59.055Z,102329.56
2023-03-02T06:04:01.166Z,102324.63
2023-03-02T06:06:03.099Z,102323.53
2023-03-02T06:08:05.939Z,102324.41
2023-03-02T06:10:10.450Z,102323.28
2023-03-02T06:12:12.331Z,102317.97
2023-03-02T06:14:14.280Z,102332.28
2023-03-02T06:16:16.249Z,102329.53
2023-03-02T06:18:20.478Z,102333.84
2023-03-02T06:20:22.436Z,102340.22
2023-03-02T06:22:24.572Z,102339.84
2023-03-02T06:24:26.565Z,102339.53
2023-03-02T06:26:28.576Z,102335.41
2023-03-02T06:28:31.801Z,102345.94
2023-03-02T06:30:34.713Z,102340.41
2023-03-02T06:32:36.692Z,102340.22
2023-03-02T06:34:40.821Z,102336.41
2023-03-02T06:36:43.087Z,102340.72
2023-03-02T06:38:45.585Z,102335.59
2023-03-02T06:40:47.507Z,102349.50
2023-03-02T06:42:49.399Z,102341.84
2023-03-02T06:44:51.953Z,102342.22
2023-03-02T06:46:53.860Z,102337.91
2023-03-02T06:48:55.807Z,102342.03
2023-03-02T06:50:57.678Z,102336.22
2023-03-02T06:52:59.915Z,102340.25
2023-03-02T06:55:01.884Z,102337.59
2023-03-02T06:57:04.302Z,102338.84
2023-03-02T06:59:06.326Z,102335.25
2023-03-02T07:01:08.304Z,102336.22
2023-03-02T07:03:10.151Z,102334.47
2023-03-02T07:05:12.876Z,102342.22
2023-03-02T07:07:14.776Z,102329.25
2023-03-02T07:09:18.809Z,102335.53
2023-03-02T07:11:20.863Z,102347.53
2023-03-02T07:13:22.836Z,102335.44
2023-03-02T07:15:24.902Z,102340.19
2023-03-02T07:17:27.085Z,102344.88
2023-03-02T07:19:28.943Z,102345.28
2023-03-02T07:21:31.117Z,102348.63
2023-03-02T07:23:33.894Z,102338.97
2023-03-02T07:25:37.108Z,102347.66
2023-03-02T07:27:39.247Z,102338.22
2023-03-02T07:29:41.558Z,102353.94
2023-03-02T07:31:44.406Z,102349.53
2023-03-02T07:33:46.331Z,102351.38
2023-03-02T07:35:48.965Z,102351.72
2023-03-02T07:37:53.026Z,102343.44
2023-03-02T07:39:54.958Z,102344.06
2023-03-02T07:42:00.070Z,102343.97
2023-03-02T07:44:06.870Z,102341.88
2023-03-02T07:46:09.150Z,102343.75
2023-03-02T07:48:11.160Z,102341.19
2023-03-02T07:50:13.273Z,102341.00
2023-03-02T07:52:15.473Z,102340.53
2023-03-02T07:54:17.332Z,102350.25
2023-03-02T07:56:20.576Z,102339.34
2023-03-02T07:58:23.212Z,102348.91
2023-03-02T08:00:25.555Z,102354.19
2023-03-02T08:02:28.459Z,102342.03
2023-03-02T08:04:30.756Z,102350.66
2023-03-02T08:06:32.728Z,102342.41
2023-03-02T08:08:35.329Z,102346.44
2023-03-02T08:10:40.036Z,102347.13
2023-03-02T08:12:43.109Z,102337.47
2023-03-02T08:14:48.085Z,102356.47
2023-03-02T08:16:52.430Z,102342.31
2023-03-02T08:18:54.631Z,102344.97
2023-03-02T08:20:58.033Z,102343.59
2023-03-02T08:23:00.127Z,102345.38
2023-03-02T08:25:02.502Z,102357.53
2023-03-02T08:27:05.096Z,102355.13
2023-03-02T08:29:08.067Z,102352.66
2023-03-02T08:31:10.692Z,102361.50
2023-03-02T08:33:12.933Z,102359.72
2023-03-02T08:35:17.624Z,102363.25
2023-03-02T08:37:20.026Z,102360.41
2023-03-02T08:39:23.756Z,102357.97
2023-03-02T08:41:26.347Z,102362.09
2023-03-02T08:43:28.522Z,102365.25
2023-03-02T08:45:30.619Z,102361.38
2023-03-02T08:47:32.771Z,102366.13
2023-03-02T08:49:34.879Z,102367.59
2023-03-02T08:51:37.110Z,102371.50
2023-03-02T08:53:41.756Z,102372.38
2023-03-02T08:55:43.782Z,102373.69
2023-03-02T08:57:45.825Z,102366.78
2023-03-02T08:59:47.924Z,102373.41
2023-03-02T09:01:50.770Z,102377.81
2023-03-02T09:04:06.022Z,102374.66
2023-03-02T09:06:08.353Z,102363.31
2023-03-02T09:08:14.319Z,102369.72
2023-03-02T09:10:16.476Z,102376.59
2023-03-02T09:12:18.526Z,102374.31
2023-03-02T09:14:47.030Z,102377.38
2023-03-02T09:16:49.394Z,102377.75
2023-03-02T09:18:52.392Z,102375.56
2023-03-02T09:20:54.446Z,102381.25
2023-03-02T09:22:56.600Z,102379.19
2023-03-02T09:24:58.972Z,102378.22
2023-03-02T09:27:00.956Z,102385.38
2023-03-02T09:29:03.133Z,102380.56
2023-03-02T09:31:07.657Z,102376.41
2023-03-02T09:33:11.934Z,102384.44
2023-03-02T09:35:16.271Z,102378.91
2023-03-02T09:37:18.353Z,102387.84
2023-03-02T09:39:20.296Z,102381.50
2023-03-02T09:41:23.086Z,102383.44
2023-03-02T09:43:33.402Z,102383.28
2023-03-02T09:45:39.366Z,102386.97
2023-03-02T09:47:46.007Z,102384.50
2023-03-02T09:49:59.694Z,102384.00
2023-03-02T09:52:12.374Z,102382.03
2023-03-02T09:54:19.577Z,102383.81
2023-03-02T09:56:25.104Z,102386.13
2023-03-02T09:58:32.172Z,102383.66
2023-03-02T10:00:37.275Z,102384.53
2023-03-02T10:02:47.386Z,102385.06
2023-03-02T10:04:53.523Z,102381.09
2023-03-02T10:07:00.109Z,102388.25
2023-03-02T10:09:02.314Z,102386.63
2023-03-02T10:11:10.857Z,102387.78
2023-03-02T10:13:20.594Z,102391.00
2023-03-02T10:15:31.915Z,102387.47
2023-03-02T10:17:42.779Z,102389.75
2023-03-02T10:19:47.497Z,102389.69
2023-03-02T10:21:58.471Z,102386.91
2023-03-02T10:24:09.880Z,102390.66
2023-03-02T10:26:19.678Z,102382.94
2023-03-02T10:28:29.682Z,102379.84
2023-03-02T10:30:35.657Z,102383.25
2023-03-02T10:32:45.644Z,102385.91
2023-03-02T10:34:50.163Z,102381.13
2023-03-02T10:36:52.179Z,102366.63
2023-03-02T10:38:55.310Z,102366.31
2023-03-02T10:41:02.648Z,102362.88
2023-03-02T10:43:07.401Z,102378.03
2023-03-02T10:45:22.652Z,102378.09
2023-03-02T10:47:28.812Z,102377.69
2023-03-02T10:49:33.652Z,102383.19
2023-03-02T10:51:35.750Z,102373.72
2023-03-02T10:53:37.838Z,102376.88
2023-03-02T10:55:47.157Z,102380.38
2023-03-02T10:58:01.881Z,102373.16
2023-03-02T11:00:12.414Z,102370.38
2023-03-02T11:02:24.144Z,102371.16
2023-03-02T11:04:26.303Z,102368.19
2023-03-02T11:06:29.910Z,102366.91
2023-03-02T11:08:33.125Z,102370.69
2023-03-02T11:10:39.809Z,102376.03
2023-03-02T11:12:47.809Z,102362.66
2023-03-02T11:14:49.928Z,102360.94
2023-03-02T11:16:53.535Z,102367.56
2023-03-02T11:18:58.453Z,102373.84
2023-03-02T11:21:05.993Z,102376.97
2023-03-02T11:23:14.629Z,102372.72
2023-03-02T11:25:28.763Z,102371.56
2023-03-02T11:27:36.874Z,102364.88
2023-03-02T11:29:44.612Z,102363.66
2023-03-02T11:31:50.748Z,102367.31
2023-03-02T11:34:11.791Z,102365.75
2023-03-02T11:36:24.891Z,102367.88
2023-03-02T11:38:30.779Z,102360.34
2023-03-02T11:40:40.371Z,102364.53
2023-03-02T11:42:45.845Z,102367.53
2023-03-02T11:44:49.464Z,102368.47
2023-03-02T11:47:01.322Z,102364.34
2023-03-02T11:49:13.572Z,102371.84
2023-03-02T11:51:22.421Z,102361.88
2023-03-02T11:53:31.799Z,102364.78
2023-03-02T11:55:41.071Z,102362.41
2023-03-02T11:57:49.700Z,102357.69
2023-03-02T11:59:54.292Z,102362.22
2023-03-02T12:01:59.718Z,102359.78
2023-03-02T12:04:08.737Z,102360.19
2023-03-02T12:06:17.580Z,102358.00
2023-03-02T12:08:20.374Z,102353.22
2023-03-02T12:10:28.738Z,102351.50
2023-03-02T12:12:36.812Z,102354.63
2023-03-02T12:14:45.337Z,102346.63
2023-03-02T12:16:47.618Z,102342.66
2023-03-02T12:18:51.958Z,102342.53
2023-03-02T12:21:00.397Z,102337.59
2023-03-02T12:23:08.072Z,102346.47
2023-03-02T12:25:16.253Z,102340.63
2023-03-02T12:27:25.571Z,102343.09
2023-03-02T12:29:42.715Z,102344.41
2023-03-02T12:31:48.347Z,102338.50
2023-03-02T12:33:52.864Z,102333.63
2023-03-02T12:36:05.359Z,102343.06
2023-03-02T12:38:13.920Z,102339.88
2023-03-02T12:40:22.223Z,102349.59
2023-03-02T12:42:30.589Z,102344.69
2023-03-02T12:44:39.325Z,102334.63
2023-03-02T12:46:46.506Z,102333.13
2023-03-02T12:48:59.569Z,102336.59
2023-03-02T12:51:04.734Z,102331.81
2023-03-02T12:53:18.148Z,102340.69
2023-03-02T12:55:21.019Z,102333.97
2023-03-02T12:57:23.118Z,102339.84
2023-03-02T12:59:28.651Z,102327.78
2023-03-02T13:01:33.134Z,102324.72
2023-03-02T13:03:46.520Z,102328.81
2023-03-02T13:05:48.929Z,102326.69
2023-03-02T13:07:59.368Z,102316.50
2023-03-02T13:10:06.866Z,102320.00
2023-03-02T13:12:14.411Z,102320.22
2023-03-02T13:14:28.594Z,102323.19
2023-03-02T13:16:34.328Z,102313.34
2023-03-02T13:18:39.754Z,102315.69
2023-03-02T13:20:44.335Z,102311.44
2023-03-02T13:22:46.887Z,102310.38
2023-03-02T13:24:55.536Z,102313.84
2023-03-02T13:27:04.102Z,102314.22
2023-03-02T13:29:21.099Z,102307.44
2023-03-02T13:31:27.515Z,102311.25
2023-03-02T13:33:31.820Z,102310.69
2023-03-02T13:35:38.152Z,102307.22
2023-03-02T13:37:44.269Z,102302.34
2023-03-02T13:39:55.741Z,102303.72
2023-03-02T13:42:04.830Z,102302.34
2023-03-02T13:44:17.258Z,102303.50
2023-03-02T13:46:20.283Z,102294.97
2023-03-02T13:48:23.516Z,102288.25
2023-03-02T13:50:30.418Z,102295.69
2023-03-02T13:52:34.854Z,102289.13
2023-03-02T13:54:58.021Z,102284.28
2023-03-02T13:57:04.593Z,102287.16
2023-03-02T13:59:15.490Z,102285.34
2023-03-02T14:01:17.641Z,102279.63
2023-03-02T14:03:23.477Z,102286.50
2023-03-02T14:05:36.129Z,102282.53
2023-03-02T14:07:38.806Z,102280.81
2023-03-02T14:09:43.631Z,102278.41
2023-03-02T14:11:49.556Z,102277.75
2023-03-02T14:14:11.887Z,102268.72
2023-03-02T14:16:15.580Z,102275.09
2023-03-02T14:18:24.147Z,102275.91
2023-03-02T14:20:26.569Z,102267.09
2023-03-02T14:22:39.606Z,102273.47
2023-03-02T14:24:50.694Z,102271.22
2023-03-02T14:26:53.542Z,102271.44
2023-03-02T14:29:05.384Z,102272.31
2023-03-02T14:31:15.176Z,102267.00
2023-03-02T14:33:17.824Z,102265.22
2023-03-02T14:35:20.229Z,102262.91
2023-03-02T14:37:27.997Z,102257.19
2023-03-02T14:39:36.114Z,102254.81
2023-03-02T14:41:52.498Z,102256.88
2023-03-02T14:43:55.700Z,102257.91
2023-03-02T14:45:58.138Z,102255.97
2023-03-02T14:48:01.099Z,102258.91
2023-03-02T14:50:05.428Z,102254.97
2023-03-02T14:52:15.335Z,102254.19
2023-03-02T14:54:24.129Z,102250.75
2023-03-02T14:56:26.377Z,102248.25
2023-03-02T14:58:32.846Z,102247.47
2023-03-02T15:00:37.436Z,102242.94
2023-03-02T15:02:39.831Z,102243.22
2023-03-02T15:04:42.102Z,102245.19
2023-03-02T15:06:44.298Z,102237.53
2023-03-02T15:08:46.418Z,102237.78
2023-03-02T15:10:49.663Z,102243.78
2023-03-02T15:12:51.852Z,102240.22
2023-03-02T15:14:53.955Z,102237.78
2023-03-02T15:16:55.999Z,102231.22
2023-03-02T15:19:00.494Z,102236.44
2023-03-02T15:21:02.690Z,102229.44
2023-03-02T15:23:05.049Z,102230.34
2023-03-02T15:25:07.240Z,102226.69
2023-03-02T15:27:09.421Z,102234.59
2023-03-02T15:29:11.403Z,102230.81
2023-03-02T15:31:16.050Z,102229.72
2023-03-02T15:33:18.315Z,102227.09
2023-03-02T15:35:20.760Z,102229.28
2023-03-02T15:37:22.980Z,102229.25
2023-03-02T15:39:25.030Z,102233.22
2023-03-02T15:41:30.107Z,102234.16
2023-03-02T15:43:32.649Z,102239.09
2023-03-02T15:45:34.939Z,102227.34
2023-03-02T15:47:38.206Z,102237.34
2023-03-02T15:49:40.580Z,102221.91
2023-03-02T15:51:47.356Z,102229.41
2023-03-02T15:53:49.435Z,102222.44
2023-03-02T15:55:51.709Z,102229.78
2023-03-02T15:57:53.914Z,102225.94
2023-03-02T15:59:56.173Z,102233.44
2023-03-02T16:01:59.914Z,102235.19
2023-03-02T16:04:07.768Z,102235.75
2023-03-02T16:06:22.751Z,102235.97
2023-03-02T16:08:31.155Z,102233.56
2023-03-02T16:10:36.403Z,102232.19
2023-03-02T16:12:38.716Z,102230.56
2023-03-02T16:14:40.792Z,102231.22
2023-03-02T16:16:44.117Z,102230.88
2023-03-02T16:18:50.697Z,102235.03
2023-03-02T16:20:53.133Z,102234.38
2023-03-02T16:22:55.180Z,102232.75
2023-03-02T16:24:57.275Z,102238.41
2023-03-02T16:27:02.127Z,102241.59
2023-03-02T16:29:05.797Z,102235.47
2023-03-02T16:31:10.929Z,102240.34
2023-03-02T16:33:16.931Z,102253.97
2023-03-02T16:35:19.725Z,102246.59
2023-03-02T16:37:22.397Z,102249.34
2023-03-02T16:39:24.924Z,102244.94
2023-03-02T16:41:27.412Z,102246.47
2023-03-02T16:43:29.748Z,102251.34
2023-03-02T16:45:33.303Z,102252.84
2023-03-02T16:47:43.623Z,102253.19
2023-03-02T16:49:57.070Z,102257.19
2023-03-02T16:52:00.038Z,102252.13
2023-03-02T16:54:02.734Z,102260.09
2023-03-02T16:56:05.401Z,102264.63
2023-03-02T16:58:07.549Z,102270.31
2023-03-02T17:00:12.858Z,102264.78
2023-03-02T17:02:16.010Z,102269.06
2023-03-02T17:04:22.303Z,102278.31
2023-03-02T17:06:24.989Z,102274.66
2023-03-02T17:08:35.055Z,102280.75
2023-03-02T17:10:38.646Z,102285.13
2023-03-02T17:12:41.476Z,102279.47
2023-03-02T17:14:43.690Z,102284.06
2023-03-02T17:16:45.821Z,102287.41
2023-03-02T17:18:49.531Z,102281.91
2023-03-02T17:20:58.986Z,102291.00
2023-03-02T17:23:04.468Z,102286.56
2023-03-02T17:25:11.889Z,102294.41
2023-03-02T17:27:25.089Z,102296.81
2023-03-02T17:29:30.489Z,102297.16
2023-03-02T17:31:33.378Z,102297.81
2023-03-02T17:33:38.144Z,102297.56
2023-03-02T17:35:41.336Z,102298.09
2023-03-02T17:37:44.639Z,102304.00
2023-03-02T17:39:50.551Z,102302.97
2023-03-02T17:41:52.953Z,102305.47
2023-03-02T17:43:55.040Z,102305.41
2023-03-02T17:45:58.249Z,102309.50
2023-03-02T17:48:01.101Z,102315.81
2023-03-02T17:50:05.311Z,102319.00
2023-03-02T17:52:14.061Z,102325.03
2023-03-02T17:54:32.509Z,102332.16
2023-03-02T17:56:40.285Z,102326.78
2023-03-02T17:58:46.896Z,102332.66
2023-03-02T18:00:49.634Z,102338.69
2023-03-02T18:02:53.207Z,102347.53
2023-03-02T18:04:55.961Z,102349.38
2023-03-02T18:07:04.305Z,102347.59
2023-03-02T18:09:09.305Z,102359.28
2023-03-02T18:11:12.061Z,102359.53
2023-03-02T18:13:17.114Z,102361.84
2023-03-02T18:15:31.715Z,102358.06
2023-03-02T18:17:39.411Z,102364.88
2023-03-02T18:19:41.739Z,102370.59
2023-03-02T18:21:46.795Z,102375.34
2023-03-02T18:23:49.333Z,102375.47
2023-03-02T18:25:51.640Z,102381.25
2023-03-02T18:27:56.262Z,102388.44
2023-03-02T18:29:58.969Z,102386.00
2023-03-02T18:32:01.337Z,102390.59
2023-03-02T18:34:04.482Z,102393.44
2023-03-02T18:36:07.273Z,102389.56
2023-03-02T18:38:09.586Z,102397.44
2023-03-02T18:40:12.476Z,102393.84
2023-03-02T18:42:14.772Z,102397.16
2023-03-02T18:44:18.192Z,102403.97
2023-03-02T18:46:24.354Z,102408.94
2023-03-02T18:48:29.130Z,102408.78
2023-03-02T18:50:31.958Z,102418.34
2023-03-02T18:52:34.733Z,102419.81
2023-03-02T18:54:37.036Z,102416.28
2023-03-02T18:56:42.803Z,102417.97
2023-03-02T18:58:45.719Z,102416.22
2023-03-02T19:00:49.125Z,102414.19
2023-03-02T19:02:54.660Z,102421.09
2023-03-02T19:04:56.708Z,102417.50
2023-03-02T19:07:01.036Z,102424.25
2023-03-02T19:09:03.526Z,102424.13
2023-03-02T19:11:07.136Z,102424.78
2023-03-02T19:13:11.837Z,102430.34
2023-03-02T19:15:14.378Z,102438.66
2023-03-02T19:17:16.777Z,102437.22
2023-03-02T19:19:19.288Z,102439.78
2023-03-02T19:21:21.695Z,102436.56
2023-03-02T19:23:25.444Z,102445.31
2023-03-02T19:25:28.414Z,102444.94
2023-03-02T19:27:30.669Z,102446.13
2023-03-02T19:29:34.907Z,102451.41
2023-03-02T19:31:40.812Z,102451.50
2023-03-02T19:33:44.969Z,102443.97
2023-03-02T19:35:47.222Z,102448.38
2023-03-02T19:37:49.447Z,102456.72
2023-03-02T19:39:51.680Z,102455.03
2023-03-02T19:41:54.470Z,102445.06
2023-03-02T19:43:57.186Z,102458.38
2023-03-02T19:45:59.408Z,102455.16
2023-03-02T19:48:03.197Z,102458.38
2023-03-02T19:50:06.798Z,102458.38
2023-03-02T19:52:09.385Z,102463.22
2023-03-02T19:54:11.529Z,102459.75
2023-03-02T19:56:15.268Z,102459.09
2023-03-02T19:58:19.732Z,102464.00
2023-03-02T20:00:23.214Z,102458.00
2023-03-02T20:02:25.372Z,102462.31
2023-03-02T20:04:27.933Z,102456.69
2023-03-02T20:06:33.610Z,102462.38
2023-03-02T20:08:36.581Z,102462.81
2023-03-02T20:10:42.163Z,102461.75
2023-03-02T20:12:45.153Z,102463.25
2023-03-02T20:14:50.672Z,102477.69
2023-03-02T20:16:55.694Z,102477.13
2023-03-02T20:19:02.663Z,102474.25
2023-03-02T20:21:07.435Z,102478.50
2023-03-02T20:23:10.588Z,102482.63
2023-03-02T20:25:14.967Z,102478.06
2023-03-02T20:27:19.873Z,102492.22
2023-03-02T20:29:23.068Z,102486.03
2023-03-02T20:31:27.664Z,102491.69
2023-03-02T20:33:35.177Z,102491.38
2023-03-02T20:35:41.353Z,102490.81
2023-03-02T20:37:45.558Z,102492.69
2023-03-02T20:39:49.614Z,102496.69
2023-03-02T20:41:55.833Z,102501.09
2023-03-02T20:43:59.281Z,102491.88
2023-03-02T20:46:04.190Z,102496.06
2023-03-02T20:48:07.021Z,102497.03
2023-03-02T20:50:13.399Z,102496.31
2023-03-02T20:52:15.409Z,102505.78
2023-03-02T20:54:17.868Z,102506.28
2023-03-02T20:56:21.683Z,102501.94
2023-03-02T20:58:26.041Z,102516.06
2023-03-02T21:00:30.217Z,102515.31
2023-03-02T21:02:32.353Z,102507.41
2023-03-02T21:04:36.219Z,102518.53
2023-03-02T21:06:39.148Z,102511.97
2023-03-02T21:08:42.028Z,102515.78
2023-03-02T21:10:46.630Z,102521.81
2023-03-02T21:12:49.198Z,102526.13
2023-03-02T21:14:51.694Z,102531.16
2023-03-02T21:16:54.271Z,102526.91
2023-03-02T21:18:56.615Z,102534.53
2023-03-02T21:20:58.616Z,102533.44
2023-03-02T21:23:00.715Z,102537.50
2023-03-02T21:25:02.806Z,102539.31
2023-03-02T21:27:07.313Z,102536.13
2023-03-02T21:29:12.232Z,102535.66
2023-03-02T21:31:18.466Z,102532.81
2023-03-02T21:33:21.155Z,102529.56
2023-03-02T21:35:24.355Z,102535.38
2023-03-02T21:37:27.355Z,102537.56
2023-03-02T21:39:29.455Z,102531.84
2023-03-02T21:41:31.508Z,102519.44
2023-03-02T21:43:34.011Z,102529.59
2023-03-02T21:45:37.274Z,102529.72
2023-03-02T21:47:42.127Z,102530.31
2023-03-02T21:49:47.068Z,102532.88
2023-03-02T21:51:50.030Z,102532.06
2023-03-02T21:53:53.519Z,102540.25
2023-03-02T21:55:55.450Z,102525.66
2023-03-02T21:57:57.941Z,102531.84
2023-03-02T22:00:00.812Z,102542.31
2023-03-02T22:02:03.006Z,102534.06
2023-03-02T22:04:05.782Z,102525.19
2023-03-02T22:06:07.909Z,102528.63
2023-03-02T22:08:16.699Z,102532.47
2023-03-02T22:10:27.012Z,102519.88
2023-03-02T22:12:29.273Z,102532.19
2023-03-02T22:14:31.472Z,102528.03
2023-03-02T22:16:38.401Z,102527.16
2023-03-02T22:18:40.944Z,102529.31
2023-03-02T22:20:44.984Z,102529.50
2023-03-02T22:22:49.958Z,102537.19
2023-03-02T22:24:54.178Z,102532.06
2023-03-02T22:27:00.817Z,102532.19
2023-03-02T22:29:16.153Z,102535.16
2023-03-02T22:31:24.076Z,102529.78
2023-03-02T22:33:28.312Z,102527.28
2023-03-02T22:35:30.610Z,102531.53
2023-03-02T22:37:35.163Z,102533.25
2023-03-02T22:39:37.349Z,102528.81
2023-03-02T22:41:39.843Z,102535.53
2023-03-02T22:43:42.075Z,102526.78
2023-03-02T22:45:44.153Z,102530.41
2023-03-02T22:47:51.338Z,102521.28
2023-03-02T22:49:58.942Z,102527.47
2023-03-02T22:52:03.595Z,102529.25
2023-03-02T22:54:16.822Z,102529.41
2023-03-02T22:56:25.873Z,102529.50
2023-03-02T22:58:35.163Z,102534.06
2023-03-02T23:00:43.235Z,102532.28
2023-03-02T23:02:46.752Z,102523.50
2023-03-02T23:04:50.664Z,102526.94
2023-03-02T23:06:57.061Z,102532.66
2023-03-02T23:09:02.354Z,102537.78
2023-03-02T23:11:15.881Z,102534.41
2023-03-02T23:13:27.433Z,102536.41
2023-03-02T23:15:30.102Z,102523.19
2023-03-02T23:17:39.003Z,102521.72
2023-03-02T23:19:41.662Z,102529.28
2023-03-02T23:21:46.427Z,102526.72
2023-03-02T23:23:52.083Z,102527.53
2023-03-02T23:25:54.259Z,102524.09
2023-03-02T23:27:57.313Z,102525.56
2023-03-02T23:30:00.332Z,102521.72
2023-03-02T23:32:03.727Z,102524.19
2023-03-02T23:34:06.358Z,102520.41
2023-03-02T23:36:08.701Z,102520.41
2023-03-02T23:38:10.581Z,102517.59
2023-03-02T23:40:12.849Z,102525.66
2023-03-02T23:42:14.744Z,102519.25